createdAt,value
2023-03-12T00:00:04.028Z,0.13
2023-03-12T00:00:16.365Z,0.11
2023-03-12T00:00:28.294Z,0.12
2023-03-12T00:00:41.571Z,0.15
2023-03-12T00:00:53.503Z,0.16
2023-03-12T00:01:20.060Z,0.17
2023-03-12T00:01:33.329Z,0.18
2023-03-12T00:01:45.284Z,0.18
2023-03-12T00:01:59.345Z,0.19
2023-03-12T00:02:11.320Z,0.18
2023-03-12T00:02:23.343Z,0.17
2023-03-12T00:02:35.959Z,0.18
2023-03-12T00:02:47.975Z,0.19
2023-03-12T00:02:59.953Z,0.21
2023-03-12T00:03:11.938Z,0.23
2023-03-12T00:03:26.814Z,0.24
2023-03-12T00:03:40.234Z,0.23
2023-03-12T00:03:52.334Z,0.21
2023-03-12T00:04:07.213Z,0.21
2023-03-12T00:04:19.218Z,0.21
2023-03-12T00:04:32.193Z,0.20
2023-03-12T00:04:44.109Z,0.21
2023-03-12T00:04:58.747Z,0.19
2023-03-12T00:05:11.040Z,0.19
2023-03-12T00:05:25.712Z,0.18
2023-03-12T00:05:39.128Z,0.18
2023-03-12T00:05:51.009Z,0.19
2023-03-12T00:06:10.481Z,0.19
2023-03-12T00:06:23.081Z,0.21
2023-03-12T00:06:35.039Z,0.21
2023-03-12T00:06:46.989Z,0.19
2023-03-12T00:06:58.876Z,0.20
2023-03-12T00:07:10.786Z,0.21
2023-03-12T00:07:22.668Z,0.19
2023-03-12T00:07:36.440Z,0.19
2023-03-12T00:07:49.201Z,0.18
2023-03-12T00:08:01.103Z,0.15
2023-03-12T00:08:13.272Z,0.12
2023-03-12T00:08:25.217Z,0.13
2023-03-12T00:08:37.272Z,0.14
2023-03-12T00:08:49.468Z,0.12
2023-03-12T00:09:02.028Z,0.12
2023-03-12T00:09:14.001Z,0.11
2023-03-12T00:09:25.902Z,0.11
2023-03-12T00:09:39.466Z,0.14
2023-03-12T00:09:51.488Z,0.13
2023-03-12T00:10:05.544Z,0.14
2023-03-12T00:10:18.559Z,0.17
2023-03-12T00:10:30.877Z,0.18
2023-03-12T00:10:43.030Z,0.16
2023-03-12T00:10:54.992Z,0.14
2023-03-12T00:11:14.602Z,0.14
2023-03-12T00:11:26.562Z,0.13
2023-03-12T00:11:38.682Z,0.16
2023-03-12T00:11:50.667Z,0.17
2023-03-12T00:12:02.921Z,0.18
2023-03-12T00:12:14.902Z,0.19
2023-03-12T00:12:26.838Z,0.21
2023-03-12T00:12:38.754Z,0.22
2023-03-12T00:12:50.678Z,0.22
2023-03-12T00:13:02.625Z,0.23
2023-03-12T00:13:14.588Z,0.24
2023-03-12T00:13:26.552Z,0.21
2023-03-12T00:13:38.934Z,0.19
2023-03-12T00:13:52.260Z,0.21
2023-03-12T00:14:04.189Z,0.18
2023-03-12T00:14:16.118Z,0.18
2023-03-12T00:14:28.114Z,0.16
2023-03-12T00:14:40.075Z,0.17
2023-03-12T00:14:51.985Z,0.16
2023-03-12T00:15:07.466Z,0.14
2023-03-12T00:15:19.581Z,0.14
2023-03-12T00:15:31.526Z,0.14
2023-03-12T00:15:43.535Z,0.14
2023-03-12T00:15:55.620Z,0.16
2023-03-12T00:16:13.891Z,0.16
2023-03-12T00:16:28.335Z,0.15
2023-03-12T00:16:40.490Z,0.15
2023-03-12T00:16:52.496Z,0.12
2023-03-12T00:17:04.425Z,0.11
2023-03-12T00:17:18.983Z,0.12
2023-03-12T00:17:30.937Z,0.15
2023-03-12T00:17:42.922Z,0.14
2023-03-12T00:17:54.855Z,0.14
2023-03-12T00:18:06.818Z,0.13
2023-03-12T00:18:18.767Z,0.14
2023-03-12T00:18:30.670Z,0.14
2023-03-12T00:18:43.557Z,0.15
2023-03-12T00:18:56.001Z,0.16
2023-03-12T00:19:07.949Z,0.17
2023-03-12T00:19:19.892Z,0.19
2023-03-12T00:19:31.789Z,0.17
2023-03-12T00:19:45.165Z,0.19
2023-03-12T00:19:57.164Z,0.18
2023-03-12T00:20:14.824Z,0.18
2023-03-12T00:20:26.744Z,0.16
2023-03-12T00:20:38.638Z,0.14
2023-03-12T00:20:55.213Z,0.16
2023-03-12T00:21:08.132Z,0.18
2023-03-12T00:21:21.175Z,0.18
2023-03-12T00:21:33.271Z,0.19
2023-03-12T00:21:45.230Z,0.19
2023-03-12T00:21:57.266Z,0.21
2023-03-12T00:22:09.206Z,0.20
2023-03-12T00:22:25.489Z,0.19
2023-03-12T00:22:37.769Z,0.17
2023-03-12T00:22:52.844Z,0.17
2023-03-12T00:23:06.357Z,0.14
2023-03-12T00:23:18.266Z,0.15
2023-03-12T00:23:30.267Z,0.12
2023-03-12T00:23:42.246Z,0.11
2023-03-12T00:23:54.328Z,0.11
2023-03-12T00:24:08.114Z,0.12
2023-03-12T00:24:20.108Z,0.11
2023-03-12T00:24:32.069Z,0.12
2023-03-12T00:24:44.061Z,0.11
2023-03-12T00:24:56.923Z,0.13
2023-03-12T00:25:13.790Z,0.13
2023-03-12T00:25:25.739Z,0.13
2023-03-12T00:25:37.686Z,0.14
2023-03-12T00:25:49.579Z,0.12
2023-03-12T00:26:07.381Z,0.11
2023-03-12T00:26:21.334Z,0.10
2023-03-12T00:26:33.265Z,0.10
2023-03-12T00:26:45.186Z,0.10
2023-03-12T00:26:57.129Z,0.07
2023-03-12T00:27:09.073Z,0.09
2023-03-12T00:27:21.706Z,0.08
2023-03-12T00:27:33.660Z,0.04
2023-03-12T00:27:45.600Z,0.03
2023-03-12T00:27:57.499Z,0.01
2023-03-12T00:28:09.424Z,-0.01
2023-03-12T00:28:21.402Z,-0.02
2023-03-12T00:28:34.886Z,-0.01
2023-03-12T00:28:48.243Z,-0.02
2023-03-12T00:29:00.181Z,-0.03
2023-03-12T00:29:12.098Z,-0.02
2023-03-12T00:29:24.012Z,-0.05
2023-03-12T00:29:36.055Z,-0.08
2023-03-12T00:29:48.268Z,-0.08
2023-03-12T00:30:00.278Z,-0.09
2023-03-12T00:30:12.643Z,-0.09
2023-03-12T00:30:24.600Z,-0.07
2023-03-12T00:30:36.568Z,-0.07
2023-03-12T00:30:48.517Z,-0.09
2023-03-12T00:31:01.570Z,-0.08
2023-03-12T00:31:22.588Z,-0.07
2023-03-12T00:31:34.625Z,-0.04
2023-03-12T00:31:46.644Z,-0.02
2023-03-12T00:31:58.561Z,-0.04
2023-03-12T00:32:10.745Z,-0.05
2023-03-12T00:32:23.611Z,-0.07
2023-03-12T00:32:36.998Z,-0.04
2023-03-12T00:32:48.985Z,-0.06
2023-03-12T00:33:00.917Z,-0.06
2023-03-12T00:33:13.056Z,-0.07
2023-03-12T00:33:26.395Z,-0.09
2023-03-12T00:33:38.603Z,-0.07
2023-03-12T00:33:50.630Z,-0.07
2023-03-12T00:34:03.165Z,-0.04
2023-03-12T00:34:15.222Z,-0.03
2023-03-12T00:34:27.297Z,-0.01
2023-03-12T00:34:39.261Z,0.01
2023-03-12T00:34:55.928Z,0.03
2023-03-12T00:35:08.305Z,0.04
2023-03-12T00:35:20.257Z,0.04
2023-03-12T00:35:32.682Z,0.05
2023-03-12T00:35:44.672Z,0.04
2023-03-12T00:36:00.340Z,0.05
2023-03-12T00:36:12.549Z,0.05
2023-03-12T00:36:27.372Z,0.07
2023-03-12T00:36:41.428Z,0.08
2023-03-12T00:36:53.363Z,0.06
2023-03-12T00:37:05.311Z,0.06
2023-03-12T00:37:17.341Z,0.04
2023-03-12T00:37:29.329Z,0.03
2023-03-12T00:37:41.217Z,0.01
2023-03-12T00:37:53.156Z,-0.02
2023-03-12T00:38:05.127Z,-0.03
2023-03-12T00:38:17.074Z,-0.04
2023-03-12T00:38:29.038Z,-0.03
2023-03-12T00:38:40.937Z,-0.03
2023-03-12T00:38:53.677Z,-0.04
2023-03-12T00:39:05.661Z,-0.06
2023-03-12T00:39:17.661Z,-0.08
2023-03-12T00:39:29.643Z,-0.09
2023-03-12T00:39:41.549Z,-0.08
2023-03-12T00:39:53.541Z,-0.05
2023-03-12T00:40:08.403Z,-0.05
2023-03-12T00:40:20.363Z,-0.03
2023-03-12T00:40:32.352Z,-0.03
2023-03-12T00:40:44.587Z,-0.05
2023-03-12T00:40:56.518Z,-0.03
2023-03-12T00:41:08.705Z,-0.03
2023-03-12T00:41:22.263Z,-0.06
2023-03-12T00:41:34.378Z,-0.04
2023-03-12T00:41:46.373Z,-0.04
2023-03-12T00:41:58.265Z,-0.04
2023-03-12T00:42:10.227Z,-0.04
2023-03-12T00:42:22.195Z,-0.06
2023-03-12T00:42:34.203Z,-0.06
2023-03-12T00:42:46.124Z,-0.06
2023-03-12T00:42:58.030Z,-0.07
2023-03-12T00:43:10.001Z,-0.11
2023-03-12T00:43:21.926Z,-0.11
2023-03-12T00:43:33.908Z,-0.10
2023-03-12T00:43:47.532Z,-0.10
2023-03-12T00:43:59.564Z,-0.09
2023-03-12T00:44:11.516Z,-0.07
2023-03-12T00:44:23.439Z,-0.06
2023-03-12T00:44:35.418Z,-0.08
2023-03-12T00:44:47.467Z,-0.11
2023-03-12T00:44:59.387Z,-0.13
2023-03-12T00:45:11.595Z,-0.11
2023-03-12T00:45:23.505Z,-0.11
2023-03-12T00:45:35.423Z,-0.13
2023-03-12T00:45:47.317Z,-0.12
2023-03-12T00:45:59.340Z,-0.11
2023-03-12T00:46:11.294Z,-0.11
2023-03-12T00:46:23.551Z,-0.09
2023-03-12T00:46:35.577Z,-0.09
2023-03-12T00:46:47.605Z,-0.08
2023-03-12T00:46:59.704Z,-0.06
2023-03-12T00:47:12.441Z,-0.05
2023-03-12T00:47:24.356Z,-0.04
2023-03-12T00:47:36.303Z,-0.04
2023-03-12T00:47:48.232Z,-0.06
2023-03-12T00:48:00.267Z,-0.05
2023-03-12T00:48:12.173Z,-0.04
2023-03-12T00:48:24.172Z,-0.06
2023-03-12T00:48:36.158Z,-0.05
2023-03-12T00:48:48.383Z,-0.05
2023-03-12T00:49:00.345Z,-0.07
2023-03-12T00:49:12.392Z,-0.07
2023-03-12T00:49:24.281Z,-0.06
2023-03-12T00:49:39.016Z,-0.09
2023-03-12T00:49:50.963Z,-0.10
2023-03-12T00:50:03.397Z,-0.12
2023-03-12T00:50:15.546Z,-0.12
2023-03-12T00:50:27.547Z,-0.13
2023-03-12T00:50:39.508Z,-0.11
2023-03-12T00:50:51.436Z,-0.08
2023-03-12T00:51:03.507Z,-0.05
2023-03-12T00:51:15.535Z,-0.04
2023-03-12T00:51:27.473Z,-0.03
2023-03-12T00:51:39.419Z,-0.03
2023-03-12T00:51:51.660Z,-0.02
2023-03-12T00:52:04.461Z,-0.02
2023-03-12T00:52:16.472Z,-0.01
2023-03-12T00:52:28.444Z,-0.01
2023-03-12T00:52:40.376Z,0.01
2023-03-12T00:52:52.358Z,0.01
2023-03-12T00:53:04.414Z,-0.01
2023-03-12T00:53:16.343Z,-0.02
2023-03-12T00:53:28.300Z,-0.01
2023-03-12T00:53:40.330Z,-0.01
2023-03-12T00:53:52.340Z,0.02
2023-03-12T00:54:05.019Z,-0.03
2023-03-12T00:54:17.190Z,-0.05
2023-03-12T00:54:29.128Z,-0.08
2023-03-12T00:54:41.030Z,-0.08
2023-03-12T00:54:52.971Z,-0.11
2023-03-12T00:55:05.233Z,-0.13
2023-03-12T00:55:17.274Z,-0.13
2023-03-12T00:55:29.471Z,-0.11
2023-03-12T00:55:41.396Z,-0.09
2023-03-12T00:55:53.378Z,-0.09
2023-03-12T00:56:06.942Z,-0.08
2023-03-12T00:56:18.905Z,-0.07
2023-03-12T00:56:31.048Z,-0.05
2023-03-12T00:56:42.999Z,-0.04
2023-03-12T00:56:54.884Z,-0.06
2023-03-12T00:57:06.798Z,-0.05
2023-03-12T00:57:18.692Z,-0.04
2023-03-12T00:57:30.751Z,-0.03
2023-03-12T00:57:42.860Z,-0.03
2023-03-12T00:57:54.882Z,-0.03
2023-03-12T00:58:06.785Z,-0.03
2023-03-12T00:58:18.739Z,-0.01
2023-03-12T00:58:30.751Z,-0.06
2023-03-12T00:58:43.229Z,-0.03
2023-03-12T00:58:55.138Z,-0.06
2023-03-12T00:59:07.192Z,-0.06
2023-03-12T00:59:19.258Z,-0.06
2023-03-12T00:59:31.459Z,-0.04
2023-03-12T00:59:43.534Z,-0.04
2023-03-12T00:59:55.508Z,-0.05
2023-03-12T01:00:10.775Z,-0.04
2023-03-12T01:00:22.844Z,-0.03
2023-03-12T01:00:34.961Z,-0.03
2023-03-12T01:00:47.072Z,-0.06
2023-03-12T01:00:59.137Z,-0.07
2023-03-12T01:01:11.195Z,-0.05
2023-03-12T01:01:23.488Z,-0.05
2023-03-12T01:01:35.430Z,-0.08
2023-03-12T01:01:47.456Z,-0.06
2023-03-12T01:01:59.433Z,-0.06
2023-03-12T01:02:11.422Z,-0.06
2023-03-12T01:02:23.421Z,-0.03
2023-03-12T01:02:35.384Z,-0.04
2023-03-12T01:02:47.374Z,-0.05
2023-03-12T01:02:59.316Z,-0.04
2023-03-12T01:03:11.508Z,-0.04
2023-03-12T01:03:23.611Z,-0.04
2023-03-12T01:03:35.636Z,-0.03
2023-03-12T01:03:49.595Z,-0.01
2023-03-12T01:04:01.530Z,-0.02
2023-03-12T01:04:14.341Z,-0.03
2023-03-12T01:04:26.452Z,-0.03
2023-03-12T01:04:38.490Z,-0.04
2023-03-12T01:04:50.423Z,-0.06
2023-03-12T01:05:02.472Z,-0.04
2023-03-12T01:05:15.080Z,-0.05
2023-03-12T01:05:27.088Z,-0.06
2023-03-12T01:05:40.672Z,-0.06
2023-03-12T01:05:55.625Z,-0.06
2023-03-12T01:06:08.117Z,-0.05
2023-03-12T01:06:20.624Z,-0.05
2023-03-12T01:06:35.214Z,-0.04
2023-03-12T01:06:47.218Z,-0.02
2023-03-12T01:06:59.172Z,0.01
2023-03-12T01:07:11.141Z,-0.01
2023-03-12T01:07:26.166Z,-0.03
2023-03-12T01:07:38.104Z,-0.03
2023-03-12T01:07:50.058Z,-0.03
2023-03-12T01:08:01.971Z,-0.03
2023-03-12T01:08:13.917Z,-0.02
2023-03-12T01:08:25.824Z,-0.03
2023-03-12T01:08:38.080Z,-0.02
2023-03-12T01:08:50.059Z,-0.02
2023-03-12T01:09:05.178Z,-0.02
2023-03-12T01:09:17.148Z,0.01
2023-03-12T01:09:29.121Z,-0.01
2023-03-12T01:09:41.036Z,-0.04
2023-03-12T01:09:52.930Z,-0.04
2023-03-12T01:10:05.450Z,-0.09
2023-03-12T01:10:19.743Z,-0.12
2023-03-12T01:10:31.710Z,-0.15
2023-03-12T01:10:43.692Z,-0.22
2023-03-12T01:10:55.653Z,-0.31
2023-03-12T01:11:07.600Z,-0.32
2023-03-12T01:11:20.606Z,-0.35
2023-03-12T01:11:33.442Z,-0.31
2023-03-12T01:11:45.386Z,-0.33
2023-03-12T01:11:57.421Z,-0.33
2023-03-12T01:12:09.482Z,-0.31
2023-03-12T01:12:21.479Z,-0.32
2023-03-12T01:12:33.561Z,-0.33
2023-03-12T01:12:45.774Z,-0.36
2023-03-12T01:12:58.342Z,-0.34
2023-03-12T01:13:10.288Z,-0.37
2023-03-12T01:13:22.677Z,-0.41
2023-03-12T01:13:34.658Z,-0.42
2023-03-12T01:13:47.424Z,-0.42
2023-03-12T01:14:00.623Z,-0.44
2023-03-12T01:14:12.512Z,-0.49
2023-03-12T01:14:24.616Z,-0.53
2023-03-12T01:14:36.582Z,-0.58
2023-03-12T01:14:48.653Z,-0.64
2023-03-12T01:15:00.690Z,-0.62
2023-03-12T01:15:15.980Z,-0.64
2023-03-12T01:15:29.070Z,-0.64
2023-03-12T01:15:40.960Z,-0.71
2023-03-12T01:15:52.993Z,-0.66
2023-03-12T01:16:05.350Z,-0.68
2023-03-12T01:16:17.334Z,-0.67
2023-03-12T01:16:30.270Z,-0.66
2023-03-12T01:16:42.290Z,-0.63
2023-03-12T01:16:54.269Z,-0.66
2023-03-12T01:17:06.250Z,-0.66
2023-03-12T01:17:18.188Z,-0.66
2023-03-12T01:17:30.112Z,-0.67
2023-03-12T01:17:42.176Z,-0.75
2023-03-12T01:17:54.146Z,-0.83
2023-03-12T01:18:06.145Z,-0.83
2023-03-12T01:18:18.249Z,-0.87
2023-03-12T01:18:30.241Z,-0.92
2023-03-12T01:18:42.200Z,-0.91
2023-03-12T01:18:55.046Z,-0.99
2023-03-12T01:19:07.065Z,-1.00
2023-03-12T01:19:19.383Z,-1.01
2023-03-12T01:19:31.325Z,-1.03
2023-03-12T01:19:43.320Z,-1.05
2023-03-12T01:19:55.293Z,-1.09
2023-03-12T01:20:08.475Z,-1.13
2023-03-12T01:20:20.722Z,-1.17
2023-03-12T01:20:32.707Z,-1.14
2023-03-12T01:20:44.673Z,-1.19
2023-03-12T01:20:56.657Z,-1.18
2023-03-12T01:21:08.614Z,-1.15
2023-03-12T01:21:20.922Z,-1.15
2023-03-12T01:21:32.957Z,-1.14
2023-03-12T01:21:44.850Z,-1.13
2023-03-12T01:21:56.771Z,-1.12
2023-03-12T01:22:09.139Z,-1.07
2023-03-12T01:22:21.089Z,-1.02
2023-03-12T01:22:33.064Z,-0.96
2023-03-12T01:22:45.139Z,-0.93
2023-03-12T01:22:57.320Z,-0.89
2023-03-12T01:23:09.865Z,-0.86
2023-03-12T01:23:21.887Z,-0.85
2023-03-12T01:23:33.868Z,-0.81
2023-03-12T01:23:45.850Z,-0.78
2023-03-12T01:23:58.703Z,-0.76
2023-03-12T01:24:10.667Z,-0.73
2023-03-12T01:24:22.676Z,-0.72
2023-03-12T01:24:34.645Z,-0.69
2023-03-12T01:24:46.694Z,-0.68
2023-03-12T01:24:58.603Z,-0.66
2023-03-12T01:25:11.820Z,-0.66
2023-03-12T01:25:23.740Z,-0.66
2023-03-12T01:25:37.080Z,-0.66
2023-03-12T01:25:49.423Z,-0.63
2023-03-12T01:26:01.373Z,-0.61
2023-03-12T01:26:13.869Z,-0.57
2023-03-12T01:26:25.892Z,-0.61
2023-03-12T01:26:37.867Z,-0.61
2023-03-12T01:26:49.767Z,-0.59
2023-03-12T01:27:01.652Z,-0.60
2023-03-12T01:27:13.754Z,-0.60
2023-03-12T01:27:25.772Z,-0.62
2023-03-12T01:27:37.732Z,-0.66
2023-03-12T01:27:49.718Z,-0.70
2023-03-12T01:28:02.107Z,-0.65
2023-03-12T01:28:14.255Z,-0.74
2023-03-12T01:28:26.867Z,-0.91
2023-03-12T01:28:38.785Z,-0.97
2023-03-12T01:28:50.683Z,-0.89
2023-03-12T01:29:02.650Z,-0.84
2023-03-12T01:29:14.589Z,-0.82
2023-03-12T01:29:26.677Z,-0.78
2023-03-12T01:29:38.672Z,-0.79
2023-03-12T01:29:50.598Z,-0.79
2023-03-12T01:30:04.016Z,-0.82
2023-03-12T01:30:16.024Z,-0.81
2023-03-12T01:30:28.809Z,-0.80
2023-03-12T01:30:40.744Z,-0.82
2023-03-12T01:30:53.328Z,-0.83
2023-03-12T01:31:14.087Z,-0.85
2023-03-12T01:31:26.361Z,-0.90
2023-03-12T01:31:38.373Z,-0.87
2023-03-12T01:31:51.955Z,-0.88
2023-03-12T01:32:04.212Z,-0.88
2023-03-12T01:32:17.122Z,-0.92
2023-03-12T01:32:29.201Z,-0.99
2023-03-12T01:32:41.421Z,-1.04
2023-03-12T01:32:53.463Z,-1.18
2023-03-12T01:33:05.475Z,-1.25
2023-03-12T01:33:18.495Z,-1.25
2023-03-12T01:33:30.475Z,-1.25
2023-03-12T01:33:42.466Z,-1.17
2023-03-12T01:33:54.557Z,-1.13
2023-03-12T01:34:06.529Z,-1.12
2023-03-12T01:34:18.625Z,-1.12
2023-03-12T01:34:31.640Z,-1.09
2023-03-12T01:34:44.565Z,-1.09
2023-03-12T01:34:58.550Z,-1.07
2023-03-12T01:35:10.720Z,-1.08
2023-03-12T01:35:22.643Z,-1.14
2023-03-12T01:35:39.444Z,-1.13
2023-03-12T01:35:51.711Z,-1.12
2023-03-12T01:36:04.541Z,-1.14
2023-03-12T01:36:24.998Z,-1.10
2023-03-12T01:36:37.024Z,-1.14
2023-03-12T01:36:48.982Z,-1.09
2023-03-12T01:37:01.446Z,-1.12
2023-03-12T01:37:13.455Z,-1.14
2023-03-12T01:37:25.895Z,-1.16
2023-03-12T01:37:37.869Z,-1.17
2023-03-12T01:37:49.918Z,-1.15
2023-03-12T01:38:02.021Z,-1.15
2023-03-12T01:38:15.762Z,-1.17
2023-03-12T01:38:27.679Z,-1.23
2023-03-12T01:38:39.557Z,-1.30
2023-03-12T01:38:53.338Z,-1.21
2023-03-12T01:39:05.707Z,-1.21
2023-03-12T01:39:17.725Z,-1.15
2023-03-12T01:39:29.700Z,-1.12
2023-03-12T01:39:41.676Z,-1.12
2023-03-12T01:39:53.604Z,-1.13
2023-03-12T01:40:06.128Z,-1.12
2023-03-12T01:40:25.447Z,-1.16
2023-03-12T01:40:38.044Z,-1.14
2023-03-12T01:40:49.954Z,-1.16
2023-03-12T01:41:01.838Z,-1.28
2023-03-12T01:41:13.797Z,-1.38
2023-03-12T01:41:28.536Z,-1.52
2023-03-12T01:41:41.110Z,-1.39
2023-03-12T01:41:53.213Z,-1.34
2023-03-12T01:42:05.683Z,-1.27
2023-03-12T01:42:17.719Z,-1.22
2023-03-12T01:42:29.651Z,-1.16
2023-03-12T01:42:41.755Z,-1.10
2023-03-12T01:42:54.869Z,-1.08
2023-03-12T01:43:37.404Z,-0.96
2023-03-12T01:43:49.502Z,-0.93
2023-03-12T01:44:03.734Z,-0.87
2023-03-12T01:44:15.773Z,-0.84
2023-03-12T01:44:28.428Z,-0.81
2023-03-12T01:44:52.372Z,-0.74
2023-03-12T01:45:04.867Z,-0.71
2023-03-12T01:46:10.931Z,-0.61
2023-03-12T01:46:30.513Z,-0.59
2023-03-12T01:46:44.271Z,-0.57
2023-03-12T01:46:56.174Z,-0.57
2023-03-12T01:47:08.701Z,-0.55
2023-03-12T01:47:20.903Z,-0.52
2023-03-12T01:47:32.938Z,-0.59
2023-03-12T01:47:44.867Z,-0.62
2023-03-12T01:47:56.770Z,-0.63
2023-03-12T01:48:09.999Z,-0.61
2023-03-12T01:48:22.499Z,-0.65
2023-03-12T01:48:39.806Z,-0.67
2023-03-12T01:48:59.539Z,-0.59
2023-03-12T01:49:29.313Z,-0.63
2023-03-12T01:49:41.513Z,-0.56
2023-03-12T01:49:55.804Z,-0.58
2023-03-12T01:50:08.166Z,-0.58
2023-03-12T01:50:20.199Z,-0.58
2023-03-12T01:50:32.214Z,-0.59
2023-03-12T01:50:44.159Z,-0.59
2023-03-12T01:50:56.159Z,-0.59
2023-03-12T01:51:10.188Z,-0.60
2023-03-12T01:51:24.939Z,-0.57
2023-03-12T01:51:42.833Z,-0.60
2023-03-12T01:52:00.280Z,-0.57
2023-03-12T01:52:18.549Z,-0.53
2023-03-12T01:52:38.012Z,-0.50
2023-03-12T01:52:49.929Z,-0.46
2023-03-12T01:53:02.011Z,-0.42
2023-03-12T01:53:14.054Z,-0.43
2023-03-12T01:53:26.420Z,-0.42
2023-03-12T01:53:42.229Z,-0.39
2023-03-12T01:53:58.242Z,-0.46
2023-03-12T01:54:18.476Z,-0.49
2023-03-12T01:54:40.829Z,-0.47
2023-03-12T01:55:09.321Z,-0.51
2023-03-12T01:55:21.415Z,-0.57
2023-03-12T01:55:33.370Z,-0.61
2023-03-12T01:55:45.301Z,-0.67
2023-03-12T01:56:01.882Z,-0.74
2023-03-12T01:56:17.182Z,-0.90
2023-03-12T01:56:32.701Z,-0.86
2023-03-12T01:56:46.509Z,-0.83
2023-03-12T01:56:58.545Z,-0.81
2023-03-12T01:57:17.305Z,-0.73
2023-03-12T01:57:42.822Z,-0.70
2023-03-12T01:57:58.811Z,-0.69
2023-03-12T01:58:10.883Z,-0.68
2023-03-12T01:58:22.849Z,-0.65
2023-03-12T01:58:37.617Z,-0.60
2023-03-12T01:58:53.160Z,-0.56
2023-03-12T01:59:13.602Z,-0.54
2023-03-12T01:59:32.717Z,-0.57
2023-03-12T01:59:50.168Z,-0.57
2023-03-12T02:00:08.096Z,-0.69
2023-03-12T02:00:24.059Z,-0.85
2023-03-12T02:00:36.057Z,-1.02
2023-03-12T02:00:48.071Z,-0.98
2023-03-12T02:01:00.628Z,-0.91
2023-03-12T02:01:14.532Z,-0.79
2023-03-12T02:01:27.799Z,-0.77
2023-03-12T02:01:41.869Z,-0.76
2023-03-12T02:01:54.062Z,-0.73
2023-03-12T02:02:07.219Z,-0.72
2023-03-12T02:02:24.842Z,-0.67
2023-03-12T02:02:39.934Z,-0.63
2023-03-12T02:02:56.208Z,-0.63
2023-03-12T02:03:09.325Z,-0.63
2023-03-12T02:03:21.458Z,-0.61
2023-03-12T02:03:34.942Z,-0.59
2023-03-12T02:03:50.293Z,-0.66
2023-03-12T02:04:02.452Z,-0.71
2023-03-12T02:04:16.584Z,-0.70
2023-03-12T02:04:31.064Z,-0.65
2023-03-12T02:04:45.268Z,-0.63
2023-03-12T02:05:07.088Z,-0.57
2023-03-12T02:05:26.599Z,-0.55
2023-03-12T02:05:48.210Z,-0.58
2023-03-12T02:06:02.194Z,-0.53
2023-03-12T02:06:16.089Z,-0.52
2023-03-12T02:06:40.014Z,-0.47
2023-03-12T02:07:11.673Z,-0.43
2023-03-12T02:07:23.611Z,-0.42
2023-03-12T02:07:35.600Z,-0.43
2023-03-12T02:07:47.881Z,-0.44
2023-03-12T02:07:59.971Z,-0.42
2023-03-12T02:08:14.405Z,-0.43
2023-03-12T02:08:26.473Z,-0.46
2023-03-12T02:08:43.264Z,-0.45
2023-03-12T02:08:56.746Z,-0.47
2023-03-12T02:09:08.896Z,-0.46
2023-03-12T02:09:21.462Z,-0.45
2023-03-12T02:09:36.905Z,-0.46
2023-03-12T02:09:49.526Z,-0.48
2023-03-12T02:10:03.318Z,-0.47
2023-03-12T02:10:16.140Z,-0.51
2023-03-12T02:10:28.673Z,-0.55
2023-03-12T02:10:40.602Z,-0.49
2023-03-12T02:10:52.631Z,-0.50
2023-03-12T02:11:04.668Z,-0.52
2023-03-12T02:11:16.659Z,-0.51
2023-03-12T02:11:28.577Z,-0.50
2023-03-12T02:11:40.784Z,-0.51
2023-03-12T02:11:52.738Z,-0.50
2023-03-12T02:12:05.387Z,-0.50
2023-03-12T02:12:17.686Z,-0.54
2023-03-12T02:12:29.742Z,-0.57
2023-03-12T02:12:41.649Z,-0.56
2023-03-12T02:12:54.000Z,-0.57
2023-03-12T02:13:06.569Z,-0.57
2023-03-12T02:13:18.896Z,-0.57
2023-03-12T02:13:31.105Z,-0.58
2023-03-12T02:13:43.098Z,-0.60
2023-03-12T02:13:55.120Z,-0.58
2023-03-12T02:14:07.079Z,-0.61
2023-03-12T02:14:19.452Z,-0.58
2023-03-12T02:14:31.942Z,-0.63
2023-03-12T02:14:44.012Z,-0.64
2023-03-12T02:14:56.042Z,-0.84
2023-03-12T02:15:08.921Z,-0.91
2023-03-12T02:15:21.469Z,-0.94
2023-03-12T02:15:35.776Z,-0.89
2023-03-12T02:15:47.896Z,-0.90
2023-03-12T02:16:00.669Z,-0.86
2023-03-12T02:16:12.623Z,-0.82
2023-03-12T02:16:25.113Z,-0.83
2023-03-12T02:16:37.168Z,-0.81
2023-03-12T02:16:49.252Z,-0.86
2023-03-12T02:17:01.379Z,-0.85
2023-03-12T02:17:13.483Z,-0.85
2023-03-12T02:17:25.518Z,-0.84
2023-03-12T02:17:40.317Z,-0.84
2023-03-12T02:17:54.138Z,-0.76
2023-03-12T02:18:08.259Z,-0.78
2023-03-12T02:18:21.369Z,-0.76
2023-03-12T02:18:35.027Z,-0.75
2023-03-12T02:18:50.336Z,-0.77
2023-03-12T02:19:09.055Z,-0.74
2023-03-12T02:19:45.744Z,-0.81
2023-03-12T02:20:14.143Z,-0.73
2023-03-12T02:20:39.841Z,-0.76
2023-03-12T02:21:19.145Z,-0.76
2023-03-12T02:21:33.997Z,-0.76
2023-03-12T02:21:46.358Z,-0.75
2023-03-12T02:21:59.578Z,-0.78
2023-03-12T02:22:13.715Z,-0.79
2023-03-12T02:22:25.918Z,-0.80
2023-03-12T02:22:40.943Z,-0.77
2023-03-12T02:23:06.301Z,-0.71
2023-03-12T02:23:28.955Z,-0.67
2023-03-12T02:24:02.185Z,-0.62
2023-03-12T02:24:29.212Z,-0.55
2023-03-12T02:24:48.114Z,-0.53
2023-03-12T02:25:37.178Z,-0.50
2023-03-12T02:25:52.283Z,-0.44
2023-03-12T02:26:06.649Z,-0.41
2023-03-12T02:26:20.043Z,-0.36
2023-03-12T02:26:33.385Z,-0.35
2023-03-12T02:26:46.054Z,-0.32
2023-03-12T02:26:59.021Z,-0.30
2023-03-12T02:27:12.147Z,-0.31
2023-03-12T02:27:24.501Z,-0.33
2023-03-12T02:27:37.726Z,-0.31
2023-03-12T02:27:49.703Z,-0.32
2023-03-12T02:28:04.966Z,-0.32
2023-03-12T02:28:19.633Z,-0.34
2023-03-12T02:28:34.674Z,-0.31
2023-03-12T02:28:47.846Z,-0.31
2023-03-12T02:29:01.044Z,-0.30
2023-03-12T02:29:13.714Z,-0.30
2023-03-12T02:29:30.306Z,-0.31
2023-03-12T02:29:44.577Z,-0.32
2023-03-12T02:29:56.544Z,-0.39
2023-03-12T02:30:09.550Z,-0.40
2023-03-12T02:30:22.396Z,-0.42
2023-03-12T02:30:34.840Z,-0.41
2023-03-12T02:30:49.830Z,-0.44
2023-03-12T02:31:04.208Z,-0.41
2023-03-12T02:31:20.482Z,-0.45
2023-03-12T02:31:42.929Z,-0.46
2023-03-12T02:31:57.859Z,-0.46
2023-03-12T02:32:17.692Z,-0.45
2023-03-12T02:32:39.504Z,-0.37
2023-03-12T02:32:52.070Z,-0.42
2023-03-12T02:33:07.116Z,-0.40
2023-03-12T02:33:19.404Z,-0.42
2023-03-12T02:33:31.323Z,-0.43
2023-03-12T02:33:43.321Z,-0.44
2023-03-12T02:33:55.950Z,-0.43
2023-03-12T02:34:08.560Z,-0.42
2023-03-12T02:34:20.691Z,-0.45
2023-03-12T02:34:32.806Z,-0.48
2023-03-12T02:34:44.748Z,-0.51
2023-03-12T02:34:57.515Z,-0.59
2023-03-12T02:35:10.101Z,-0.56
2023-03-12T02:35:22.146Z,-0.55
2023-03-12T02:35:34.759Z,-0.50
2023-03-12T02:35:47.857Z,-0.47
2023-03-12T02:35:59.954Z,-0.47
2023-03-12T02:36:12.119Z,-0.47
2023-03-12T02:36:24.145Z,-0.51
2023-03-12T02:36:36.510Z,-0.55
2023-03-12T02:36:49.539Z,-0.53
2023-03-12T02:37:01.885Z,-0.47
2023-03-12T02:37:14.524Z,-0.43
2023-03-12T02:37:26.473Z,-0.42
2023-03-12T02:37:51.219Z,-0.35
2023-03-12T02:38:04.277Z,-0.35
2023-03-12T02:38:33.788Z,-0.34
2023-03-12T02:38:51.402Z,-0.36
2023-03-12T02:39:03.651Z,-0.31
2023-03-12T02:39:15.765Z,-0.33
2023-03-12T02:39:28.457Z,-0.32
2023-03-12T02:39:42.413Z,-0.33
2023-03-12T02:40:10.103Z,-0.29
2023-03-12T02:40:45.781Z,-0.22
2023-03-12T02:41:01.053Z,-0.23
2023-03-12T02:41:14.999Z,-0.28
2023-03-12T02:41:34.214Z,-0.25
2023-03-12T02:41:50.915Z,-0.26
2023-03-12T02:42:03.193Z,-0.22
2023-03-12T02:42:15.504Z,-0.18
2023-03-12T02:42:27.506Z,-0.23
2023-03-12T02:42:40.266Z,-0.26
2023-03-12T02:42:52.770Z,-0.22
2023-03-12T02:43:09.341Z,-0.19
2023-03-12T02:43:22.747Z,-0.17
2023-03-12T02:43:35.324Z,-0.11
2023-03-12T02:43:56.296Z,-0.09
2023-03-12T02:44:22.188Z,-0.04
2023-03-12T02:44:36.405Z,-0.02
2023-03-12T02:44:48.465Z,0.01
2023-03-12T02:45:01.640Z,-0.02
2023-03-12T02:45:13.620Z,-0.02
2023-03-12T02:45:28.951Z,-0.02
2023-03-12T02:45:40.954Z,-0.04
2023-03-12T02:45:54.317Z,-0.04
2023-03-12T02:46:08.146Z,-0.08
2023-03-12T02:46:20.546Z,-0.22
2023-03-12T02:46:42.414Z,-0.17
2023-03-12T02:46:56.769Z,-0.21
2023-03-12T02:47:08.662Z,-0.24
2023-03-12T02:47:20.584Z,-0.22
2023-03-12T02:47:33.010Z,-0.27
2023-03-12T02:47:45.038Z,-0.32
2023-03-12T02:47:57.120Z,-0.39
2023-03-12T02:48:09.585Z,-0.34
2023-03-12T02:48:22.249Z,-0.28
2023-03-12T02:48:34.146Z,-0.25
2023-03-12T02:48:46.117Z,-0.24
2023-03-12T02:48:58.703Z,-0.22
2023-03-12T02:49:14.353Z,-0.20
2023-03-12T02:49:29.829Z,-0.29
2023-03-12T02:49:41.764Z,-0.28
2023-03-12T02:49:53.692Z,-0.24
2023-03-12T02:50:06.396Z,-0.20
2023-03-12T02:50:18.827Z,-0.15
2023-03-12T02:50:30.713Z,-0.13
2023-03-12T02:50:42.686Z,-0.09
2023-03-12T02:50:54.581Z,-0.08
2023-03-12T02:51:06.793Z,-0.06
2023-03-12T02:51:18.744Z,-0.05
2023-03-12T02:51:30.806Z,-0.02
2023-03-12T02:51:44.379Z,0.04
2023-03-12T02:51:56.748Z,0.05
2023-03-12T02:52:09.746Z,0.01
2023-03-12T02:52:21.772Z,-0.02
2023-03-12T02:52:36.124Z,-0.12
2023-03-12T02:52:48.069Z,-0.08
2023-03-12T02:52:59.981Z,-0.08
2023-03-12T02:53:11.866Z,-0.06
2023-03-12T02:53:23.780Z,-0.06
2023-03-12T02:53:35.763Z,-0.06
2023-03-12T02:53:50.103Z,-0.04
2023-03-12T02:54:02.048Z,-0.06
2023-03-12T02:54:16.339Z,-0.08
2023-03-12T02:54:29.001Z,-0.11